Neuruppin, Germany

7:39 AM CEST on July 24, 2014 (GMT +0200)
Neuruppin (IBRANDEN56) Elev 135 ft | 52.79 °N, 12.76 °E | Change Station

Current weather conditions updated 47 seconds ago

Overcast
Overcast
63.3 °F
Feels Like 63.3 °F
N
1.6
Wind Variable Wind from NW
Gusts 2.2 mph

Today is forecast to be Cooler than yesterday. Mainly cloudy and rainy tonight.

Today
High -- | Low -- °F
--% Chance of Precip.
Yesterday
High -- | Low -- °F
Precip. -- in
5:14 AM 9:15 PM
Waning Crescent, 7% visible
Pressure 30.04 in
Visibility 6.2 miles
Clouds
Dew Point 56 °F
Humidity 76%
Rainfall 0.00 in
Snow Depth Not available.
UV Not available.
Pollen Not available.
Air Quality Not available.
Flu Activity Not available.
METAR EDDT 240520Z 03005KT 9999 -RA NSC 18/12 Q1017 NOSIG

More Conditions Fewer Conditions

Pressure 30.04 in
Visibility 6.2 miles
Clouds
Dew Point 56 °F
Humidity 76%
Rainfall 0.00 in
Snow Depth Not available.
UV Not available.
Pollen Not available.
Air Quality Not available.
Flu Activity Not available.
METAR EDDT 240520Z 03005KT 9999 -RA NSC 18/12 Q1017 NOSIG

More Conditions Fewer Conditions

10-Day Weather Forecast

Almanac

Astronomy

Jul. 24, 2014 Rise Set
Actual Time 5:14 AM CEST 9:15 PM CEST
Civil Twilight 4:29 AM CEST 10:00 PM CEST
Nautical Twilight 3:24 AM CEST 11:04 PM CEST
Astronomical Twilight 1:47 AM CEST 12:42 AM CEST
Moon 3:11 AM CEST 7:13 PM CEST
Length of Visible Light 17h 30m
Length of Day
16h 01m
Tomorrow will be 2m 58s shorter.
Waning Crescent, 7% of the Moon is Illuminated
Today
Waning Crescent
Jul 26
New
Aug 3
First Quarter
Aug 10
Full
Aug 17
Last Quarter

Yesterday's Extremes

Country Highs Country Lows

Community

WunderPhotos

Upload Photos

1,736,916 photos uploaded!

Nearby

Snow Depth

Not available.

Earthquake Activity

City Distance Mag. Time & Date
No recent earthquake activity has been reported nearby.
Minimum magnitude displayed is 2.5.

Coastal Water Temperatures

Place Temperature
No Stations Reporting

Nearby Weather Stations

Station Location Temp. Dew Point Humidity Wind Precip. Elev Updated Type
Neuruppin, Fehrbellin 63.3 °F 56 °F 76% NW  at  1.6 mph 0.00 in / hr 135 ft 7:38 AM CEST Rapid Fire
Haage, Mühlenberge 62.2 °F 56 °F 80% NE  at  0.0 mph 0.00 in / hr 102 ft 7:17 AM CEST Rapid Fire
OHV - Friedrichsthal 59.9 °F 57 °F 89% North  at  0.0 mph 0.00 in / hr 121 ft 7:39 AM CEST Rapid Fire
Hennigsdorf-OHV, Hennigsdorf 60.8 °F 59 °F 93% SSW  at  0.0 mph 0.01 in / hr 105 ft 7:39 AM CEST Rapid Fire
Hohen Neuendorf 60.3 °F 60 °F 100% North  at  0.0 mph 0.05 in / hr 167 ft 7:34 AM CEST Normal
Schönwalde-Glien Siedlung, Sch�nwalde-Glien 60.6 °F 57 °F 89% NE  at  0.0 mph 0.00 in / hr 112 ft 7:39 AM CEST Rapid Fire

Show More Stations Show Fewer Stations